Bracht, Kentucky
Current Conditions -  °F | °C
As of 10:52 PM on Sunday 21 Dec 2014 (Local Time) from KCVG Reporting Station
Few Clouds Few Clouds  
Wind Chill: 23°   Ceiling: Unl
Heat Index: 29°   Visibility: 7mi
Dew Point: 22°   Wind: 6mph
Humidity: 75%   Direction: 90°E
Pressure: 30.11"   Gusts: NA
Location:  38.7783°N, 84.6037°W
Report Text: KCVG 220352Z 09005KT 7SM FEW250 M02/M06 A3011 RMK AO2 SLP203 T10171056
Loading
Personal Weather Stations






























Interactive Weather Map New forecast layout! Learn more

10-Day Weather Forecast

Advertisements
Track Severe Weather on mobile